createdAt,value
2018-09-19T00:00:49.805Z,6.33
2018-09-19T00:03:23.878Z,11.80
2018-09-19T00:05:58.033Z,10.70
2018-09-19T00:08:31.875Z,9.83
2018-09-19T00:11:06.273Z,9.53
2018-09-19T00:13:40.684Z,8.88
2018-09-19T00:16:14.539Z,7.45
2018-09-19T00:18:48.464Z,10.93
2018-09-19T00:21:22.406Z,8.65
2018-09-19T00:23:56.366Z,7.92
2018-09-19T00:26:30.335Z,8.50
2018-09-19T00:29:04.295Z,9.68
2018-09-19T00:31:38.535Z,8.30
2018-09-19T00:34:12.512Z,8.48
2018-09-19T00:36:46.711Z,8.15
2018-09-19T00:39:20.714Z,6.28
2018-09-19T00:41:54.758Z,7.90
2018-09-19T00:44:28.663Z,9.08
2018-09-19T00:47:02.689Z,11.35
2018-09-19T00:49:36.467Z,11.33
2018-09-19T00:52:10.365Z,8.13
2018-09-19T00:54:51.221Z,8.95
2018-09-19T00:57:25.895Z,8.45
2018-09-19T00:59:59.929Z,5.92
2018-09-19T01:02:34.160Z,12.58
2018-09-19T01:05:08.148Z,8.53
2018-09-19T01:07:43.577Z,10.93
2018-09-19T01:10:18.482Z,6.17
2018-09-19T01:12:52.376Z,9.43
2018-09-19T01:15:26.332Z,9.58
2018-09-19T01:18:00.347Z,7.35
2018-09-19T01:20:34.943Z,9.88
2018-09-19T01:23:09.070Z,7.05
2018-09-19T01:25:42.858Z,10.05
2018-09-19T01:28:16.748Z,8.25
2018-09-19T01:30:50.800Z,10.28
2018-09-19T01:33:24.740Z,7.62
2018-09-19T01:35:58.907Z,13.93
2018-09-19T01:38:32.843Z,7.37
2018-09-19T01:41:06.986Z,6.67
2018-09-19T01:43:40.742Z,8.40
2018-09-19T01:46:14.592Z,9.08
2018-09-19T01:48:49.196Z,6.77
2018-09-19T01:51:23.407Z,9.28
2018-09-19T01:53:57.344Z,7.25
2018-09-19T01:56:32.128Z,6.57
2018-09-19T01:59:06.243Z,9.08
2018-09-19T02:01:40.017Z,8.17
2018-09-19T02:04:14.977Z,10.00
2018-09-19T02:06:49.207Z,10.72
2018-09-19T02:09:23.305Z,10.70
2018-09-19T02:11:57.380Z,9.13
2018-09-19T02:14:31.255Z,9.53
2018-09-19T02:17:05.494Z,9.57
2018-09-19T02:19:39.507Z,8.93
2018-09-19T02:22:13.433Z,8.50
2018-09-19T02:24:47.677Z,11.03
2018-09-19T02:27:21.717Z,8.80
2018-09-19T02:29:55.464Z,8.20
2018-09-19T02:32:29.402Z,8.97
2018-09-19T02:35:03.236Z,8.57
2018-09-19T02:37:37.189Z,8.78
2018-09-19T02:40:11.114Z,9.67
2018-09-19T02:42:45.662Z,9.83
2018-09-19T02:45:19.644Z,8.90
2018-09-19T02:47:53.798Z,8.07
2018-09-19T02:50:27.795Z,10.13
2018-09-19T02:53:02.047Z,8.03
2018-09-19T02:55:36.703Z,8.63
2018-09-19T02:58:10.988Z,8.53
2018-09-19T03:00:45.856Z,8.63
2018-09-19T03:03:20.497Z,7.70
2018-09-19T03:05:55.139Z,11.90
2018-09-19T03:08:29.643Z,11.40
2018-09-19T03:11:03.718Z,8.73
2018-09-19T03:13:37.739Z,10.60
2018-09-19T03:16:11.608Z,8.13
2018-09-19T03:18:45.637Z,7.80
2018-09-19T03:21:19.394Z,10.07
2018-09-19T03:23:53.809Z,13.87
2018-09-19T03:26:27.854Z,12.40
2018-09-19T03:29:01.740Z,10.17
2018-09-19T03:31:35.717Z,12.87
2018-09-19T03:34:09.505Z,10.57
2018-09-19T03:36:43.340Z,10.27
2018-09-19T03:39:17.472Z,13.20
2018-09-19T03:41:51.903Z,9.83
2018-09-19T03:44:25.868Z,11.10
2018-09-19T03:47:00.062Z,11.03
2018-09-19T03:49:33.945Z,8.00
2018-09-19T03:52:07.941Z,11.47
2018-09-19T03:54:42.015Z,12.87
2018-09-19T03:57:15.853Z,9.20
2018-09-19T03:59:50.032Z,12.47
2018-09-19T04:02:24.080Z,11.13
2018-09-19T04:04:59.327Z,12.77
2018-09-19T04:07:34.501Z,11.97
2018-09-19T04:10:08.310Z,9.40
2018-09-19T04:12:43.013Z,9.93
2018-09-19T04:15:17.063Z,11.60
2018-09-19T04:17:51.608Z,14.97
2018-09-19T04:20:25.577Z,11.73
2018-09-19T04:22:59.816Z,12.53
2018-09-19T04:25:34.205Z,12.53
2018-09-19T04:28:07.963Z,10.80
2018-09-19T04:30:42.489Z,10.07
2018-09-19T04:33:16.429Z,10.10
2018-09-19T04:35:50.831Z,10.30
2018-09-19T04:38:25.009Z,15.93
2018-09-19T04:40:59.462Z,12.07
2018-09-19T04:43:33.858Z,11.53
2018-09-19T04:46:07.719Z,10.47
2018-09-19T04:48:42.649Z,12.50
2018-09-19T04:51:16.834Z,11.30
2018-09-19T04:53:51.292Z,15.93
2018-09-19T04:56:25.187Z,12.60
2018-09-19T04:59:00.025Z,13.83
2018-09-19T05:01:34.103Z,14.03
2018-09-19T05:04:08.162Z,12.77
2018-09-19T05:06:42.753Z,20.00
2018-09-19T05:09:16.786Z,21.20
2018-09-19T05:11:50.598Z,13.87
2018-09-19T05:14:24.631Z,22.57
2018-09-19T05:16:59.020Z,19.87
2018-09-19T05:19:33.313Z,21.93
2018-09-19T05:22:07.244Z,20.53
2018-09-19T05:24:41.352Z,19.47
2018-09-19T05:27:15.602Z,17.13
2018-09-19T05:29:49.557Z,21.57
2018-09-19T05:32:24.343Z,16.50
2018-09-19T05:34:58.732Z,19.03
2018-09-19T05:37:32.900Z,13.40
2018-09-19T05:40:07.162Z,18.57
2018-09-19T05:42:40.994Z,15.73
2018-09-19T05:45:14.779Z,15.80
2018-09-19T05:47:48.978Z,22.43
2018-09-19T05:50:22.990Z,20.93
2018-09-19T05:52:57.551Z,15.90
2018-09-19T05:55:31.498Z,21.07
2018-09-19T05:58:06.054Z,17.70
2018-09-19T06:00:40.168Z,16.23
2018-09-19T06:03:15.083Z,15.07
2018-09-19T06:05:49.163Z,18.03
2018-09-19T06:08:23.088Z,16.33
2018-09-19T06:10:57.362Z,15.73
2018-09-19T06:13:31.433Z,13.97
2018-09-19T06:16:05.599Z,13.07
2018-09-19T06:18:39.619Z,16.97
2018-09-19T06:21:13.644Z,11.37
2018-09-19T06:23:47.459Z,14.67
2018-09-19T06:26:22.114Z,15.33
2018-09-19T06:28:56.332Z,15.07
2018-09-19T06:31:30.552Z,20.07
2018-09-19T06:34:04.814Z,15.50
2018-09-19T06:36:39.693Z,13.78
2018-09-19T06:39:13.702Z,15.60
2018-09-19T06:41:47.678Z,14.43
2018-09-19T06:44:22.508Z,13.55
2018-09-19T06:46:56.952Z,13.30
2018-09-19T06:49:30.780Z,15.35
2018-09-19T06:52:05.317Z,15.48
2018-09-19T06:54:39.263Z,13.03
2018-09-19T06:57:13.125Z,14.60
2018-09-19T06:59:48.159Z,15.83
2018-09-19T07:02:22.114Z,12.58
2018-09-19T07:04:56.142Z,13.75
2018-09-19T07:07:30.439Z,9.68
2018-09-19T07:10:04.579Z,12.73
2018-09-19T07:12:38.709Z,15.80
2018-09-19T07:15:13.043Z,15.83
2018-09-19T07:17:46.989Z,12.33
2018-09-19T07:20:21.668Z,15.10
2018-09-19T07:22:56.354Z,12.68
2018-09-19T07:25:30.354Z,15.43
2018-09-19T07:28:04.604Z,18.25
2018-09-19T07:30:45.517Z,11.73
2018-09-19T07:33:19.498Z,10.68
2018-09-19T07:35:53.379Z,11.53
2018-09-19T07:38:27.539Z,12.45
2018-09-19T07:41:01.520Z,11.85
2018-09-19T07:43:35.668Z,15.08
2018-09-19T07:46:10.167Z,11.75
2018-09-19T07:48:44.552Z,9.48
2018-09-19T07:51:18.562Z,8.70
2018-09-19T07:53:52.702Z,9.15
2018-09-19T07:56:26.828Z,10.30
2018-09-19T07:59:01.108Z,10.50
2018-09-19T08:01:35.717Z,11.75
2018-09-19T08:04:09.689Z,11.53
2018-09-19T08:06:43.979Z,8.25
2018-09-19T08:09:18.119Z,5.75
2018-09-19T08:11:51.980Z,9.53
2018-09-19T08:14:26.163Z,7.72
2018-09-19T08:17:00.130Z,10.23
2018-09-19T08:19:34.034Z,5.60
2018-09-19T08:22:09.004Z,6.67
2018-09-19T08:24:42.841Z,10.25
2018-09-19T08:27:16.658Z,9.08
2018-09-19T08:29:50.805Z,8.73
2018-09-19T08:32:25.305Z,14.25
2018-09-19T08:34:59.288Z,11.05
2018-09-19T08:37:34.160Z,11.57
2018-09-19T08:40:08.298Z,8.38
2018-09-19T08:42:42.360Z,8.88
2018-09-19T08:45:16.579Z,10.05
2018-09-19T08:47:50.570Z,11.00
2018-09-19T08:50:24.532Z,10.28
2018-09-19T08:52:58.789Z,8.28
2018-09-19T08:55:32.945Z,9.15
2018-09-19T08:58:07.103Z,9.33
2018-09-19T09:00:41.306Z,8.30
2018-09-19T09:03:15.976Z,10.15
2018-09-19T09:05:49.884Z,11.00
2018-09-19T09:08:23.837Z,12.85
2018-09-19T09:10:58.263Z,12.03
2018-09-19T09:13:32.874Z,9.00
2018-09-19T09:16:06.980Z,12.75
2018-09-19T09:18:40.772Z,11.20
2018-09-19T09:21:14.692Z,12.45
2018-09-19T09:23:48.826Z,9.70
2018-09-19T09:26:23.107Z,10.40
2018-09-19T09:28:57.294Z,9.40
2018-09-19T09:31:31.227Z,11.12
2018-09-19T09:34:05.206Z,7.97
2018-09-19T09:36:39.499Z,9.83
2018-09-19T09:39:14.113Z,9.60
2018-09-19T09:41:48.764Z,9.95
2018-09-19T09:44:22.780Z,7.65
2018-09-19T09:46:56.931Z,10.25
2018-09-19T09:49:30.890Z,9.28
2018-09-19T09:52:05.292Z,9.53
2018-09-19T09:54:39.299Z,8.70
2018-09-19T09:57:13.043Z,10.25
2018-09-19T09:59:46.982Z,7.97
2018-09-19T10:02:20.904Z,8.10
2018-09-19T10:04:54.968Z,7.33
2018-09-19T10:07:29.407Z,7.65
2018-09-19T10:10:03.129Z,7.53
2018-09-19T10:12:37.308Z,10.20
2018-09-19T10:15:11.163Z,9.75
2018-09-19T10:17:45.468Z,10.05
2018-09-19T10:20:20.451Z,8.40
2018-09-19T10:22:55.387Z,8.60
2018-09-19T10:25:29.790Z,9.98
2018-09-19T10:28:04.157Z,7.55
2018-09-19T10:30:38.379Z,6.70
2018-09-19T10:33:12.260Z,11.18
2018-09-19T10:35:46.260Z,8.75
2018-09-19T10:38:20.384Z,7.80
2018-09-19T10:40:54.997Z,12.33
2018-09-19T10:43:29.198Z,6.50
2018-09-19T10:46:03.155Z,8.95
2018-09-19T10:48:37.864Z,5.90
2018-09-19T10:51:12.370Z,9.43
2018-09-19T10:53:46.574Z,6.20
2018-09-19T10:56:20.917Z,7.92
2018-09-19T10:59:01.601Z,11.97
2018-09-19T11:01:35.494Z,9.45
2018-09-19T11:04:09.644Z,9.20
2018-09-19T11:06:43.700Z,7.83
2018-09-19T11:09:17.941Z,6.22
2018-09-19T11:11:52.329Z,9.10
2018-09-19T11:14:26.328Z,5.72
2018-09-19T11:17:00.461Z,7.30
2018-09-19T11:19:34.369Z,8.83
2018-09-19T11:22:08.326Z,8.40
2018-09-19T11:24:42.506Z,9.25
2018-09-19T11:27:16.595Z,11.97
2018-09-19T11:29:50.836Z,8.95
2018-09-19T11:32:24.848Z,9.30
2018-09-19T11:34:59.143Z,8.10
2018-09-19T11:37:32.976Z,8.60
2018-09-19T11:40:07.099Z,10.00
2018-09-19T11:42:41.103Z,7.10
2018-09-19T11:45:15.468Z,9.10
2018-09-19T11:47:49.814Z,8.35
2018-09-19T11:50:23.933Z,8.00
2018-09-19T11:52:58.020Z,8.98
2018-09-19T11:55:32.064Z,6.62
2018-09-19T11:58:06.194Z,8.63
2018-09-19T12:00:40.123Z,7.80
2018-09-19T12:03:14.365Z,5.83
2018-09-19T12:05:48.357Z,8.18
2018-09-19T12:08:22.364Z,6.17
2018-09-19T12:10:56.638Z,7.42
2018-09-19T12:13:30.647Z,8.18
2018-09-19T12:16:04.728Z,7.62
2018-09-19T12:18:38.901Z,6.75
2018-09-19T12:21:12.859Z,5.30
2018-09-19T12:23:46.674Z,7.92
2018-09-19T12:26:20.910Z,8.33
2018-09-19T12:28:54.908Z,6.35
2018-09-19T12:31:29.212Z,8.18
2018-09-19T12:34:03.159Z,7.33
2018-09-19T12:36:37.322Z,10.95
2018-09-19T12:39:11.792Z,6.15
2018-09-19T12:41:45.647Z,5.47
2018-09-19T12:44:19.792Z,8.40
2018-09-19T12:46:54.004Z,6.65
2018-09-19T12:49:28.003Z,7.80
2018-09-19T12:52:02.241Z,7.85
2018-09-19T12:54:36.404Z,8.03
2018-09-19T12:57:10.645Z,9.40
2018-09-19T12:59:44.587Z,7.58
2018-09-19T13:02:18.657Z,7.15
2018-09-19T13:04:53.102Z,7.20
2018-09-19T13:07:26.939Z,8.70
2018-09-19T13:10:02.513Z,6.47
2018-09-19T13:12:36.722Z,7.40
2018-09-19T13:15:10.687Z,9.33
2018-09-19T13:17:45.557Z,7.45
2018-09-19T13:20:19.889Z,6.85
2018-09-19T13:22:54.992Z,6.45
2018-09-19T13:25:30.258Z,6.92
2018-09-19T13:28:04.251Z,10.88
2018-09-19T13:30:38.222Z,6.55
2018-09-19T13:33:12.489Z,7.28
2018-09-19T13:35:53.259Z,9.43
2018-09-19T13:38:28.610Z,6.28
2018-09-19T13:41:03.514Z,6.72
2018-09-19T13:43:38.514Z,6.95
2018-09-19T13:46:12.691Z,8.33
2018-09-19T13:48:55.179Z,4.70
2018-09-19T13:51:29.626Z,7.78
2018-09-19T13:54:03.973Z,5.62
2018-09-19T13:56:38.394Z,6.72
2018-09-19T13:59:12.870Z,5.75
2018-09-19T14:01:47.215Z,8.25
2018-09-19T14:04:21.570Z,7.60
2018-09-19T14:06:55.623Z,7.17
2018-09-19T14:09:29.738Z,8.13
2018-09-19T14:12:04.362Z,7.50
2018-09-19T14:14:38.519Z,7.85
2018-09-19T14:17:12.662Z,7.53
2018-09-19T14:19:46.829Z,5.17
2018-09-19T14:22:21.888Z,8.38
2018-09-19T14:24:56.937Z,9.25
2018-09-19T14:27:31.169Z,4.95
2018-09-19T14:30:06.169Z,6.90
2018-09-19T14:32:40.757Z,4.70
2018-09-19T14:35:15.461Z,5.25
2018-09-19T14:37:50.134Z,6.72
2018-09-19T14:40:24.798Z,4.20
2018-09-19T14:43:00.230Z,10.30
2018-09-19T14:45:34.461Z,6.37
2018-09-19T14:48:08.978Z,5.35
2018-09-19T14:50:43.275Z,5.67
2018-09-19T14:53:17.711Z,9.00
2018-09-19T14:55:51.727Z,4.80
2018-09-19T14:58:26.608Z,6.37
2018-09-19T15:01:00.982Z,4.42
2018-09-19T15:03:35.478Z,7.25
2018-09-19T15:06:10.168Z,8.15
2018-09-19T15:08:44.281Z,7.85
2018-09-19T15:11:18.358Z,8.95
2018-09-19T15:13:53.341Z,6.60
2018-09-19T15:16:27.491Z,9.00
2018-09-19T15:19:02.655Z,7.87
2018-09-19T15:21:36.793Z,7.12
2018-09-19T15:24:10.898Z,8.45
2018-09-19T15:26:45.804Z,5.58
2018-09-19T15:29:19.791Z,7.58
2018-09-19T15:31:53.805Z,4.97
2018-09-19T15:34:28.538Z,8.58
2018-09-19T15:37:03.358Z,8.50
2018-09-19T15:39:38.767Z,9.40
2018-09-19T15:42:12.625Z,6.62
2018-09-19T15:44:46.710Z,5.50
2018-09-19T15:47:20.927Z,8.43
2018-09-19T15:49:55.358Z,8.23
2018-09-19T15:52:29.370Z,5.47
2018-09-19T15:55:03.512Z,6.35
2018-09-19T15:57:37.926Z,7.20
2018-09-19T16:00:12.714Z,7.60
2018-09-19T16:02:46.983Z,7.87
2018-09-19T16:05:21.181Z,14.55
2018-09-19T16:07:55.989Z,7.47
2018-09-19T16:10:30.400Z,14.15
2018-09-19T16:13:04.639Z,10.98
2018-09-19T16:15:38.991Z,7.83
2018-09-19T16:18:13.457Z,7.72
2018-09-19T16:20:47.883Z,11.73
2018-09-19T16:23:22.951Z,5.33
2018-09-19T16:25:57.554Z,7.12
2018-09-19T16:28:32.029Z,7.12
2018-09-19T16:31:07.025Z,8.63
2018-09-19T16:33:41.526Z,5.87
2018-09-19T16:36:16.567Z,9.33
2018-09-19T16:38:50.830Z,5.85
2018-09-19T16:41:25.399Z,7.10
2018-09-19T16:44:00.619Z,5.22
2018-09-19T16:46:35.590Z,8.03
2018-09-19T16:49:10.924Z,6.83
2018-09-19T16:51:45.877Z,6.45
2018-09-19T16:54:19.850Z,6.40
2018-09-19T16:56:54.204Z,4.62
2018-09-19T16:59:28.873Z,8.43
2018-09-19T17:02:03.113Z,12.30
2018-09-19T17:04:37.464Z,8.48
2018-09-19T17:07:12.414Z,10.00
2018-09-19T17:09:47.669Z,7.05
2018-09-19T17:12:22.170Z,9.20
2018-09-19T17:14:56.540Z,8.28
2018-09-19T17:17:35.120Z,8.15
2018-09-19T17:20:10.645Z,6.20
2018-09-19T17:22:45.018Z,5.58
2018-09-19T17:25:19.494Z,7.17
2018-09-19T17:27:53.570Z,7.40
2018-09-19T17:30:27.699Z,6.22
2018-09-19T17:33:01.929Z,7.47
2018-09-19T17:35:36.190Z,6.20
2018-09-19T17:38:10.480Z,6.45
2018-09-19T17:40:44.711Z,7.17
2018-09-19T17:43:18.976Z,10.18
2018-09-19T17:45:53.198Z,9.18
2018-09-19T17:48:27.521Z,8.40
2018-09-19T17:51:01.805Z,8.90
2018-09-19T17:53:35.860Z,6.78
2018-09-19T17:56:10.692Z,8.58
2018-09-19T17:58:45.791Z,7.72
2018-09-19T18:01:20.258Z,9.68
2018-09-19T18:03:54.438Z,7.72
2018-09-19T18:06:28.888Z,6.80
2018-09-19T18:09:03.903Z,12.70
2018-09-19T18:11:38.361Z,5.90
2018-09-19T18:14:13.034Z,10.60
2018-09-19T18:16:47.226Z,7.20
2018-09-19T18:19:22.411Z,9.45
2018-09-19T18:21:56.716Z,8.30
2018-09-19T18:24:31.078Z,8.95
2018-09-19T18:27:05.610Z,5.62
2018-09-19T18:29:40.037Z,8.98
2018-09-19T18:32:15.118Z,8.65
2018-09-19T18:34:50.283Z,10.58
2018-09-19T18:37:25.294Z,11.20
2018-09-19T18:40:00.523Z,7.85
2018-09-19T18:42:34.896Z,9.18
2018-09-19T18:45:09.044Z,10.15
2018-09-19T18:47:43.297Z,11.63
2018-09-19T18:50:17.448Z,9.63
2018-09-19T18:52:51.721Z,11.83
2018-09-19T18:55:26.254Z,7.67
2018-09-19T18:58:00.438Z,6.35
2018-09-19T19:00:34.784Z,7.58
2018-09-19T19:03:09.268Z,10.32
2018-09-19T19:05:44.189Z,12.45
2018-09-19T19:08:18.346Z,6.42
2018-09-19T19:10:53.652Z,9.13
2018-09-19T19:13:28.456Z,13.98
2018-09-19T19:16:02.960Z,12.30
2018-09-19T19:18:37.380Z,13.93
2018-09-19T19:21:11.379Z,10.35
2018-09-19T19:23:45.583Z,7.53
2018-09-19T19:26:20.645Z,9.98
2018-09-19T19:28:56.523Z,9.70
2018-09-19T19:31:30.658Z,9.35
2018-09-19T19:34:05.545Z,9.05
2018-09-19T19:36:40.580Z,9.38
2018-09-19T19:39:16.066Z,7.70
2018-09-19T19:41:50.525Z,11.83
2018-09-19T19:44:24.666Z,12.75
2018-09-19T19:46:59.627Z,10.68
2018-09-19T19:49:33.778Z,10.55
2018-09-19T19:52:07.915Z,13.98
2018-09-19T19:54:41.824Z,11.55
2018-09-19T19:57:16.645Z,8.50
2018-09-19T19:59:51.475Z,12.53
2018-09-19T20:02:26.084Z,10.53
2018-09-19T20:05:01.120Z,14.00
2018-09-19T20:07:34.984Z,12.23
2018-09-19T20:10:09.140Z,8.60
2018-09-19T20:12:43.270Z,11.73
2018-09-19T20:15:17.150Z,7.47
2018-09-19T20:17:51.854Z,8.38
2018-09-19T20:20:25.777Z,10.65
2018-09-19T20:22:59.934Z,8.83
2018-09-19T20:25:34.671Z,10.30
2018-09-19T20:28:08.821Z,7.97
2018-09-19T20:30:43.185Z,6.83
2018-09-19T20:33:17.248Z,10.75
2018-09-19T20:38:32.328Z,10.53
2018-09-19T20:41:06.357Z,12.55
2018-09-19T20:43:40.328Z,6.33
2018-09-19T20:46:14.240Z,8.98
2018-09-19T20:48:49.071Z,7.22
2018-09-19T20:51:23.303Z,10.50
2018-09-19T20:53:57.381Z,10.23
2018-09-19T20:56:31.629Z,9.83
2018-09-19T20:59:06.003Z,8.33
2018-09-19T21:01:41.039Z,9.95
2018-09-19T21:04:15.407Z,9.40
2018-09-19T21:06:49.613Z,10.23
2018-09-19T21:09:25.292Z,6.22
2018-09-19T21:11:59.861Z,8.75
2018-09-19T21:14:34.426Z,9.55
2018-09-19T21:17:09.056Z,9.28
2018-09-19T21:19:42.975Z,11.45
2018-09-19T21:22:17.992Z,13.68
2018-09-19T21:24:52.068Z,10.40
2018-09-19T21:27:26.405Z,8.03
2018-09-19T21:30:00.610Z,7.12
2018-09-19T21:32:34.538Z,8.50
2018-09-19T21:35:08.664Z,9.28
2018-09-19T21:37:43.338Z,9.30
2018-09-19T21:40:17.358Z,9.65
2018-09-19T21:42:51.454Z,11.70
2018-09-19T21:45:25.607Z,6.42
2018-09-19T21:47:59.928Z,12.45
2018-09-19T21:50:34.109Z,10.72
2018-09-19T21:53:08.274Z,11.57
2018-09-19T21:55:43.219Z,10.18
2018-09-19T21:58:17.444Z,9.00
2018-09-19T22:00:57.168Z,8.55
2018-09-19T22:03:39.586Z,13.03
2018-09-19T22:06:14.040Z,9.53
2018-09-19T22:08:48.255Z,11.45
2018-09-19T22:11:22.218Z,7.72
2018-09-19T22:13:56.540Z,7.33
2018-09-19T22:16:30.588Z,11.57
2018-09-19T22:19:04.916Z,12.45
2018-09-19T22:21:39.297Z,12.70
2018-09-19T22:24:13.428Z,8.35
2018-09-19T22:26:47.519Z,12.53
2018-09-19T22:29:22.493Z,13.83
2018-09-19T22:32:00.185Z,12.78
2018-09-19T22:34:35.082Z,8.70
2018-09-19T22:37:09.119Z,12.10
2018-09-19T22:39:43.533Z,12.53
2018-09-19T22:42:18.301Z,10.60
2018-09-19T22:44:52.407Z,11.22
2018-09-19T22:47:26.742Z,8.98
2018-09-19T22:50:00.888Z,12.82
2018-09-19T22:52:35.488Z,11.38
2018-09-19T22:55:09.804Z,14.70
2018-09-19T22:57:44.341Z,10.18
2018-09-19T23:00:18.242Z,10.78
2018-09-19T23:02:52.357Z,7.83
2018-09-19T23:05:26.473Z,12.55
2018-09-19T23:08:00.471Z,12.53
2018-09-19T23:10:34.959Z,7.85
2018-09-19T23:13:09.383Z,11.33
2018-09-19T23:15:43.717Z,10.25
2018-09-19T23:18:18.572Z,13.08
2018-09-19T23:20:52.922Z,10.30
2018-09-19T23:23:27.722Z,9.78
2018-09-19T23:26:01.867Z,11.78
2018-09-19T23:28:35.949Z,11.73
2018-09-19T23:31:10.761Z,12.23
2018-09-19T23:33:45.505Z,12.70
2018-09-19T23:36:19.505Z,12.53
2018-09-19T23:38:54.352Z,16.73
2018-09-19T23:41:29.108Z,10.13
2018-09-19T23:44:02.991Z,14.33
2018-09-19T23:46:38.141Z,10.68
2018-09-19T23:49:12.883Z,11.40
2018-09-19T23:51:47.358Z,12.68
2018-09-19T23:54:21.459Z,8.78
2018-09-19T23:56:55.448Z,14.23
2018-09-19T23:59:29.451Z,11.40
